Chester River Kenton DE USA current weather conditions

sailwx.info

Wind from 293 at 0 knots gusting 2

Air temperature 20.3° C
Dewpoint 19.9° C

Last reported at 2020-Aug-08 05:00 UTC.
Time now 2020-Aug-08 05:19 UTC

Location: N 39°14' W 075°44'.
View on Google Maps.

See reports from other nearby stations

  
Tides and Currents Weather Stations Pressure Air Temp Water Temp Dewpoint Dewpoint Depression Visibility Wind Speed Wind Dir Waves Ship Positions
date/time (UTC)wind fromknots sea level pressurealtimeterstation pressurevisibilityair tempwater tempwave heightnotes
2020-Aug-08 05:00 293 0 gusting 2 20.3
2020-Aug-08 04:55 297 0 gusting 1 20.3
2020-Aug-08 04:50 354 0 gusting 1 20.3
2020-Aug-08 04:45 324 0 gusting 3 20.3
2020-Aug-08 04:40 274 1 gusting 2 20.4
2020-Aug-08 04:35 286 1 gusting 2 20.4
2020-Aug-08 04:30 318 1 gusting 3 20.4
2020-Aug-08 04:25 250 2 gusting 4 20.4
2020-Aug-08 04:20 271 2 gusting 4 20.4
2020-Aug-08 04:15 348 1 gusting 2 20.3
2020-Aug-08 04:10 028 0 gusting 2 20.4
2020-Aug-08 04:05 073 0 gusting 1 20.4
2020-Aug-08 04:00 039 0 gusting 1 20.4
2020-Aug-08 03:55 201 1 gusting 2 20.4
2020-Aug-08 03:50 259 0 gusting 2 20.5
2020-Aug-08 03:45 280 0 gusting 1 20.4
2020-Aug-08 03:40 290 0 gusting 1 20.4
2020-Aug-08 03:35 298 0 gusting 2 20.4
2020-Aug-08 03:30 169 1 gusting 2 20.5
2020-Aug-08 03:25 184 2 gusting 4 20.5
2020-Aug-08 03:20 221 2 gusting 3 20.5
2020-Aug-08 03:15 168 0 gusting 1 20.5
2020-Aug-08 03:10 233 1 gusting 2 20.5
2020-Aug-08 03:05 223 2 gusting 4 20.5
2020-Aug-08 03:00 233 1 gusting 3 20.4
2020-Aug-08 02:55 178 1 gusting 3 20.4
2020-Aug-08 02:50 122 1 gusting 3 20.5
2020-Aug-08 02:45 059 0 gusting 2 20.5
2020-Aug-08 02:40 107 1 gusting 3 20.5
2020-Aug-08 02:35 114 1 gusting 3 20.5
2020-Aug-08 02:30 116 1 gusting 2 20.5
2020-Aug-08 02:25 146 1 gusting 1 20.5
2020-Aug-08 02:20 191 1 gusting 2 20.5
2020-Aug-08 02:15 206 0 gusting 1 20.5
2020-Aug-08 02:10 231 0 gusting 2 20.5
2020-Aug-08 02:05 204 2 gusting 4 20.5
2020-Aug-08 02:00 216 2 gusting 4 20.5
2020-Aug-08 01:55 205 3 gusting 5 20.6
2020-Aug-08 01:50 190 2 gusting 4 20.6
2020-Aug-08 01:45 167 1 gusting 2 20.5
2020-Aug-08 01:40 155 0 gusting 2 20.5
2020-Aug-08 01:35 091 0 gusting 3 20.5
2020-Aug-08 01:30 108 0 gusting 1 20.5
2020-Aug-08 01:25 166 2 gusting 3 20.5
2020-Aug-08 01:20 177 2 gusting 3 20.5
2020-Aug-08 01:15 112 0 gusting 2 20.5
2020-Aug-08 01:10 028 1 gusting 2 20.5
2020-Aug-08 01:05 016 0 gusting 1 20.5
2020-Aug-08 01:00 217 1 gusting 3 20.5
2020-Aug-08 00:55 194 2 gusting 5 20.5
2020-Aug-08 00:50 173 2 gusting 4 20.5
2020-Aug-08 00:45 234 2 gusting 3 20.5
2020-Aug-08 00:40 222 3 gusting 5 20.4
2020-Aug-08 00:35 184 3 gusting 4 20.4
2020-Aug-08 00:30 144 1 gusting 2 20.3
2020-Aug-08 00:25 016 1 gusting 2 20.3
2020-Aug-08 00:20 004 1 gusting 3 20.3
2020-Aug-08 00:15 014 1 gusting 2 20.3
2020-Aug-08 00:10 007 1 gusting 2 20.3
2020-Aug-08 00:05 035 0 gusting 2 20.2
2020-Aug-08 00:00 069 1 gusting 2 20.2
2020-Aug-07 23:55 048 1 gusting 4 20.2
2020-Aug-07 23:50 353 2 gusting 4 20.2
2020-Aug-07 23:45 205 0 gusting 1 20.3
2020-Aug-07 23:40 211 1 gusting 4 20.3
2020-Aug-07 23:35 265 2 gusting 5 20.4
2020-Aug-07 23:30 022 5 gusting 10 20.4
2020-Aug-07 23:25 355 5 gusting 12 20.6
2020-Aug-07 23:20 008 7 gusting 12 20.9
2020-Aug-07 23:15 321 4 gusting 10 21.2
2020-Aug-07 23:10 356 6 gusting 14 21.7
2020-Aug-07 23:05 027 8 gusting 13 22.8
2020-Aug-07 23:00 029 5 gusting 13 24.1
2020-Aug-07 22:55 017 4 gusting 9 25.6
2020-Aug-07 22:50 099 1 gusting 2 25.7
2020-Aug-07 22:45 118 1 gusting 4 25.6
2020-Aug-07 22:40 119 1 gusting 4 25.7
2020-Aug-07 22:35 131 1 gusting 4 25.7
2020-Aug-07 22:30 121 2 gusting 4 25.7
2020-Aug-07 22:25 116 2 gusting 5 25.7
2020-Aug-07 22:20 102 1 gusting 4 25.8
2020-Aug-07 22:15 108 1 gusting 4 25.9
2020-Aug-07 22:10 139 1 gusting 5 26.1
2020-Aug-07 22:05 133 1 gusting 5 26.2
2020-Aug-07 22:00 128 2 gusting 4 26.3
2020-Aug-07 21:55 141 2 gusting 4 26.5
2020-Aug-07 21:50 147 3 gusting 8 26.9
2020-Aug-07 21:45 155 3 gusting 7 27.2
2020-Aug-07 21:40 135 2 gusting 7 27.8
2020-Aug-07 21:35 125 2 gusting 5 28.4
2020-Aug-07 21:30 131 3 gusting 8 28.6
2020-Aug-07 21:25 146 2 gusting 6 28.6
2020-Aug-07 21:20 149 3 gusting 8 28.4
2020-Aug-07 21:15 122 2 gusting 5 28.3
2020-Aug-07 21:10 116 2 gusting 4 27.9
2020-Aug-07 21:05 152 2 gusting 6 27.9
2020-Aug-07 21:00 143 2 gusting 5 28.6
2020-Aug-07 20:55 140 2 gusting 7 28.1
2020-Aug-07 20:50 145 2 gusting 5 27.3
2020-Aug-07 20:45 134 1 gusting 3 27.3
2020-Aug-07 20:40 153 2 gusting 4 26.7
2020-Aug-07 20:35 152 2 gusting 5 26.4
2020-Aug-07 20:30 146 2 gusting 5 26.6
2020-Aug-07 20:25 136 2 gusting 5 27.0
2020-Aug-07 20:20 128 3 gusting 7 27.5
2020-Aug-07 20:15 122 2 gusting 6 27.6
2020-Aug-07 20:10 121 3 gusting 8 27.5
2020-Aug-07 20:05 135 3 gusting 5 27.6
2020-Aug-07 20:00 142 2 gusting 7 28.0
2020-Aug-07 19:55 147 2 gusting 6 27.3
2020-Aug-07 19:50 155 2 gusting 6 26.8
2020-Aug-07 19:45 159 3 gusting 6 27.1
2020-Aug-07 19:40 139 2 gusting 6 27.6
2020-Aug-07 19:35 138 2 gusting 6 27.8
2020-Aug-07 19:30 115 1 gusting 4 27.7
2020-Aug-07 19:25 095 1 gusting 4 27.9
2020-Aug-07 19:20 110 3 gusting 6 28.4
2020-Aug-07 19:15 150 3 gusting 5 28.4
2020-Aug-07 19:10 134 2 gusting 5 28.2
2020-Aug-07 19:05 126 2 gusting 6 28.7
2020-Aug-07 19:00 116 3 gusting 6 29.0
2020-Aug-07 18:55 098 3 gusting 7 29.3
2020-Aug-07 18:50 098 1 gusting 5 29.4
2020-Aug-07 18:45 135 2 gusting 7 29.1
2020-Aug-07 18:40 140 2 gusting 6 29.4
2020-Aug-07 18:35 140 2 gusting 4 29.1
2020-Aug-07 18:30 132 3 gusting 6 29.0
2020-Aug-07 18:25 117 2 gusting 6 29.0
2020-Aug-07 18:20 145 2 gusting 7 28.6
2020-Aug-07 18:15 137 2 gusting 7 28.4
2020-Aug-07 18:10 138 2 gusting 5 27.9
2020-Aug-07 18:05 131 2 gusting 5 27.2
2020-Aug-07 18:00 144 2 gusting 6 27.1
2020-Aug-07 17:55 133 2 gusting 5 27.7
2020-Aug-07 17:50 141 3 gusting 7 27.9
2020-Aug-07 17:45 141 2 gusting 6 28.0
2020-Aug-07 17:40 110 2 gusting 5 28.6
2020-Aug-07 17:35 137 2 gusting 4 27.8
2020-Aug-07 17:30 117 2 gusting 4 27.3
2020-Aug-07 17:25 102 2 gusting 5 27.5
2020-Aug-07 17:20 117 2 gusting 5 27.8
2020-Aug-07 17:15 089 2 gusting 5 28.1
2020-Aug-07 17:10 075 1 gusting 4 27.9
2020-Aug-07 17:05 060 1 gusting 6 28.1
2020-Aug-07 17:00 029 1 gusting 3 28.0
2020-Aug-07 16:55 124 1 gusting 5 28.2
2020-Aug-07 16:50 076 1 gusting 4 27.7
2020-Aug-07 16:45 061 1 gusting 2 27.3
2020-Aug-07 16:40 105 1 gusting 4 27.2
2020-Aug-07 16:35 088 1 gusting 4 28.1
2020-Aug-07 16:30 082 1 gusting 4 28.5
2020-Aug-07 16:25 106 2 gusting 5 28.4
2020-Aug-07 16:20 157 2 gusting 5 28.4
2020-Aug-07 16:15 066 1 gusting 3 27.6
2020-Aug-07 16:10 076 1 gusting 2 27.2
2020-Aug-07 16:05 079 1 gusting 4 27.5
2020-Aug-07 16:00 078 1 gusting 4 28.2
2020-Aug-07 15:55 124 2 gusting 4 27.9
2020-Aug-07 15:50 136 2 gusting 5 28.0
2020-Aug-07 15:45 085 1 gusting 3 28.2
2020-Aug-07 15:40 085 1 gusting 4 28.0
2020-Aug-07 15:35 104 2 gusting 5 28.3
2020-Aug-07 15:30 063 1 gusting 4 27.8
2020-Aug-07 15:25 052 1 gusting 5 27.3
2020-Aug-07 15:20 052 1 gusting 6 27.0
2020-Aug-07 15:15 071 1 gusting 4 27.6
2020-Aug-07 15:10 106 1 gusting 5 27.5
2020-Aug-07 15:05 088 2 gusting 5 27.3
2020-Aug-07 15:00 085 2 gusting 5 27.4
2020-Aug-07 14:55 088 2 gusting 4 27.5
2020-Aug-07 14:50 079 0 gusting 2 26.8
2020-Aug-07 14:45 145 1 gusting 4 26.4
2020-Aug-07 14:40 102 1 gusting 2 26.5
2020-Aug-07 14:35 060 1 gusting 2 25.8
2020-Aug-07 14:30 231 0 gusting 2 25.6
2020-Aug-07 14:25 169 0 gusting 2 25.7
2020-Aug-07 14:20 083 0 gusting 1 25.4
2020-Aug-07 14:15 106 0 gusting 1 25.2
2020-Aug-07 14:10 033 1 gusting 2 25.2
2020-Aug-07 14:05 027 1 gusting 2 25.4
2020-Aug-07 14:00 041 1 gusting 2 25.5
2020-Aug-07 13:55 004 1 gusting 2 25.5
2020-Aug-07 13:50 019 1 gusting 4 25.4
2020-Aug-07 13:45 055 1 gusting 3 25.5
2020-Aug-07 13:40 011 1 gusting 2 25.1
2020-Aug-07 13:35 095 0 gusting 1 24.7
2020-Aug-07 13:30 350 0 gusting 2 24.5
2020-Aug-07 13:25 347 1 gusting 2 24.3
2020-Aug-07 13:20 301 0 gusting 1 24.1
2020-Aug-07 13:15 293 1 gusting 3 24.2
2020-Aug-07 13:10 308 0 gusting 1 24.1
2020-Aug-07 13:05 283 0 gusting 1 24.1
2020-Aug-07 13:00 254 1 gusting 3 24.3
2020-Aug-07 12:55 220 1 gusting 5 24.2
2020-Aug-07 12:50 225 1 gusting 2 24.0
2020-Aug-07 12:45 193 1 gusting 3 23.8
2020-Aug-07 12:40 105 0 gusting 2 23.6
2020-Aug-07 12:35 085 0 gusting 2 23.4
2020-Aug-07 12:30 025 0 gusting 1 23.1
2020-Aug-07 12:25 166 0 gusting 1 22.9
2020-Aug-07 12:20 200 0 gusting 1 22.8
2020-Aug-07 12:15 172 1 gusting 2 22.7
2020-Aug-07 12:10 178 1 gusting 2 22.6
2020-Aug-07 12:05 181 2 gusting 4 22.5
2020-Aug-07 12:00 192 2 gusting 4 22.4
2020-Aug-07 11:55 184 1 gusting 3 22.4
2020-Aug-07 11:50 184 1 gusting 2 22.3
2020-Aug-07 11:45 161 1 gusting 2 22.3
2020-Aug-07 11:40 170 1 gusting 1 22.3
2020-Aug-07 11:35 175 1 gusting 2 22.2
2020-Aug-07 11:30 191 0 gusting 1 22.1
2020-Aug-07 11:25 116 0 gusting 0 22.2
2020-Aug-07 11:20 016 0 gusting 0 22.1
2020-Aug-07 11:15 007 0 gusting 0 22.0
2020-Aug-07 11:10 007 0 gusting 1 21.9
2020-Aug-07 11:05 342 0 gusting 0 21.9
2020-Aug-07 11:00 21.8
2020-Aug-07 10:55 228 0 gusting 0 21.8
2020-Aug-07 10:50 293 0 gusting 0 21.7
2020-Aug-07 10:45 310 0 gusting 0 21.6
2020-Aug-07 10:40 21.4
2020-Aug-07 10:35 21.3
2020-Aug-07 10:30 21.3
2020-Aug-07 10:25 21.3
2020-Aug-07 10:20 088 0 gusting 0 21.3
2020-Aug-07 10:15 088 0 gusting 0 21.3
2020-Aug-07 10:10 056 0 gusting 0 21.3
2020-Aug-07 10:05 043 0 gusting 1 21.3
2020-Aug-07 10:00 001 0 gusting 0 21.4
2020-Aug-07 09:55 21.5
2020-Aug-07 09:50 21.5
2020-Aug-07 09:45 21.6
2020-Aug-07 09:40 21.7
2020-Aug-07 09:35 21.8
2020-Aug-07 09:30 339 0 gusting 1 21.7
2020-Aug-07 09:25 167 0 gusting 0 21.9
2020-Aug-07 09:20 165 0 gusting 1 22.0
2020-Aug-07 09:15 107 0 gusting 1 22.0
2020-Aug-07 09:10 158 0 gusting 1 22.1
2020-Aug-07 09:05 179 0 gusting 1 22.1
2020-Aug-07 09:00 192 1 gusting 2 22.1
2020-Aug-07 08:55 182 0 gusting 1 22.1
2020-Aug-07 08:50 194 1 gusting 2 22.1
2020-Aug-07 08:45 195 1 gusting 1 22.1
2020-Aug-07 08:40 169 0 gusting 1 22.1
2020-Aug-07 08:35 121 0 gusting 0 22.1
2020-Aug-07 08:30 119 0 gusting 0 22.2
2020-Aug-07 08:25 128 0 gusting 1 22.2
2020-Aug-07 08:20 160 1 gusting 2 22.3
2020-Aug-07 08:15 164 2 gusting 4 22.3
2020-Aug-07 08:10 164 2 gusting 3 22.3
2020-Aug-07 08:05 151 0 gusting 2 22.3
2020-Aug-07 08:00 156 1 gusting 2 22.3
2020-Aug-07 07:55 156 1 gusting 3 22.3
2020-Aug-07 07:50 149 0 gusting 1 22.3
2020-Aug-07 07:45 157 1 gusting 2 22.3
2020-Aug-07 07:40 143 0 gusting 2 22.3
2020-Aug-07 07:35 147 0 gusting 0 22.3
2020-Aug-07 07:30 147 0 gusting 2 22.2
2020-Aug-07 07:25 125 0 gusting 1 22.2
2020-Aug-07 07:20 175 0 gusting 1 22.2
2020-Aug-07 07:15 149 0 gusting 2 22.1
2020-Aug-07 07:10 110 0 gusting 0 22.1
2020-Aug-07 07:05 104 0 gusting 0 22.1
2020-Aug-07 07:00 141 0 gusting 1 22.1
2020-Aug-07 06:55 176 1 gusting 2 22.1
2020-Aug-07 06:50 183 1 gusting 2 22.1
2020-Aug-07 06:45 181 1 gusting 3 22.1
2020-Aug-07 06:40 199 0 gusting 2 22.0
2020-Aug-07 06:35 153 1 gusting 4 22.0
2020-Aug-07 06:30 122 1 gusting 4 21.9
2020-Aug-07 06:25 110 0 gusting 2 22.0
2020-Aug-07 06:20 037 0 gusting 0 22.0
2020-Aug-07 06:15 024 0 gusting 0 22.0
2020-Aug-07 06:10 018 0 gusting 0 22.1
2020-Aug-07 06:05 310 0 gusting 0 22.1
2020-Aug-07 06:00 010 0 gusting 2 22.1
2020-Aug-07 05:55 113 0 gusting 1 22.1
2020-Aug-07 05:50 108 0 gusting 1 22.1
2020-Aug-07 05:45 107 1 gusting 3 22.1
2020-Aug-07 05:40 118 1 gusting 4 22.1
2020-Aug-07 05:35 127 1 gusting 3 22.0
2020-Aug-07 05:30 135 1 gusting 2 22.0
2020-Aug-07 05:25 155 2 gusting 3 22.0
2020-Aug-07 05:20 149 1 gusting 1 22.0
2020-Aug-07 05:15 130 0 gusting 1 22.0
2020-Aug-07 05:10 117 1 gusting 1 22.0
2020-Aug-07 05:05 102 1 gusting 1 22.0
2020-Aug-07 05:00 099 0 gusting 1 22.0
2020-Aug-07 04:55 099 0 gusting 0 22.0
2020-Aug-07 04:50 21.9
2020-Aug-07 04:45 010 0 gusting 0 21.9
2020-Aug-07 04:40 350 0 gusting 1 22.0
2020-Aug-07 04:35 346 0 gusting 1 22.0
2020-Aug-07 04:30 131 0 gusting 0 22.0
2020-Aug-07 04:25 332 0 gusting 0 22.0
2020-Aug-07 04:20 316 0 gusting 1 22.0
2020-Aug-07 04:15 317 0 gusting 1 22.0
2020-Aug-07 04:10 22.0
2020-Aug-07 04:05 22.0
2020-Aug-07 04:00 22.0
2020-Aug-07 03:55 031 0 gusting 1 22.0
2020-Aug-07 03:50 007 0 gusting 0 22.0
2020-Aug-07 03:45 016 0 gusting 1 22.0
2020-Aug-07 03:40 055 0 gusting 1 22.0
2020-Aug-07 03:35 105 1 gusting 2 22.0
2020-Aug-07 03:30 097 1 gusting 2 22.1
2020-Aug-07 03:25 102 0 gusting 2 22.1
2020-Aug-07 03:20 114 0 gusting 1 22.1
2020-Aug-07 03:15 120 0 gusting 1 22.1
2020-Aug-07 03:10 102 0 gusting 1 22.0
2020-Aug-07 03:05 086 0 gusting 0 22.0
2020-Aug-07 03:00 039 0 gusting 1 22.0
2020-Aug-07 02:55 064 0 gusting 2 22.0
2020-Aug-07 02:50 101 0 gusting 1 22.1
2020-Aug-07 02:45 028 0 gusting 0 22.1
2020-Aug-07 02:40 049 0 gusting 0 22.1
2020-Aug-07 02:35 068 0 gusting 2 22.0
2020-Aug-07 02:30 071 0 gusting 1 22.0
2020-Aug-07 02:25 039 0 gusting 1 22.0
2020-Aug-07 02:20 079 0 gusting 1 22.0
2020-Aug-07 02:15 107 1 gusting 2 22.1
2020-Aug-07 02:10 118 0 gusting 1 22.1
2020-Aug-07 02:05 128 0 gusting 2 22.1
2020-Aug-07 02:00 146 0 gusting 1 22.1
2020-Aug-07 01:55 113 0 gusting 1 22.2
2020-Aug-07 01:50 127 0 gusting 1 22.2
2020-Aug-07 01:45 137 0 gusting 0 22.2
2020-Aug-07 01:40 177 1 gusting 2 22.2
2020-Aug-07 01:35 156 1 gusting 2 22.2
2020-Aug-07 01:30 140 0 gusting 2 22.3
2020-Aug-07 01:25 143 0 gusting 2 22.4
2020-Aug-07 01:20 131 0 gusting 1 22.4
2020-Aug-07 01:15 143 0 gusting 3 22.4
2020-Aug-07 01:10 168 1 gusting 3 22.4
2020-Aug-07 01:05 149 0 gusting 1 22.4
2020-Aug-07 01:00 22.3
2020-Aug-07 00:55 22.3
2020-Aug-07 00:50 135 0 gusting 1 22.4
2020-Aug-07 00:45 121 0 gusting 1 22.4
2020-Aug-07 00:40 155 0 gusting 1 22.4
2020-Aug-07 00:35 124 0 gusting 1 22.4
2020-Aug-07 00:30 120 0 gusting 2 22.4
2020-Aug-07 00:25 110 0 gusting 1 22.4
2020-Aug-07 00:20 101 0 gusting 1 22.4
2020-Aug-07 00:15 106 0 gusting 1 22.6
2020-Aug-07 00:10 133 0 gusting 1 22.7
2020-Aug-07 00:05 143 0 gusting 2 22.8
2020-Aug-07 00:00 151 1 gusting 3 22.8
2020-Aug-06 23:55 147 1 gusting 3 22.9
2020-Aug-06 23:50 142 1 gusting 3 23.0
2020-Aug-06 23:45 144 1 gusting 2 23.2
2020-Aug-06 23:40 151 2 gusting 4 23.2
2020-Aug-06 23:35 141 1 gusting 3 23.3
2020-Aug-06 23:30 113 1 gusting 4 23.5
2020-Aug-06 23:25 095 1 gusting 4 23.6
2020-Aug-06 23:20 100 2 gusting 3 23.8
2020-Aug-06 23:15 131 2 gusting 5 23.9
2020-Aug-06 23:10 130 1 gusting 3 24.1
2020-Aug-06 23:05 132 1 gusting 3 24.3
2020-Aug-06 23:00 127 1 gusting 4 24.5
2020-Aug-06 22:55 138 1 gusting 4 24.5
2020-Aug-06 22:50 136 1 gusting 3 24.5
2020-Aug-06 22:45 132 1 gusting 3 24.6
2020-Aug-06 22:40 134 1 gusting 3 24.6
2020-Aug-06 22:35 128 1 gusting 3 24.6
2020-Aug-06 22:30 126 1 gusting 3 24.7
2020-Aug-06 22:25 111 2 gusting 5 24.7
2020-Aug-06 22:20 154 2 gusting 4 24.8
2020-Aug-06 22:15 127 2 gusting 5 24.8
2020-Aug-06 22:10 141 3 gusting 9 25.1
2020-Aug-06 22:05 144 3 gusting 7 25.3
2020-Aug-06 22:00 116 3 gusting 9 25.3
2020-Aug-06 21:55 137 3 gusting 8 25.5
2020-Aug-06 21:50 139 3 gusting 7 25.7
2020-Aug-06 21:45 145 3 gusting 8 26.0
2020-Aug-06 21:40 135 2 gusting 6 26.1
2020-Aug-06 21:35 134 2 gusting 7 26.3
2020-Aug-06 21:30 133 3 gusting 6 26.1
2020-Aug-06 21:25 137 2 gusting 7 26.3
2020-Aug-06 21:20 141 3 gusting 7 26.3
2020-Aug-06 21:15 144 3 gusting 7 26.4
2020-Aug-06 21:10 137 4 gusting 9 26.0
2020-Aug-06 21:05 120 4 gusting 8 26.1
2020-Aug-06 21:00 133 3 gusting 8 26.2
2020-Aug-06 20:55 136 3 gusting 8 26.5
2020-Aug-06 20:50 129 3 gusting 9 26.3
2020-Aug-06 20:45 122 3 gusting 10 26.2
2020-Aug-06 20:40 126 3 gusting 8 26.8
2020-Aug-06 20:35 133 3 gusting 9 27.0
2020-Aug-06 20:30 132 2 gusting 6 26.9
2020-Aug-06 20:25 096 3 gusting 9 26.6
2020-Aug-06 20:20 102 3 gusting 9 27.1
2020-Aug-06 20:15 135 3 gusting 9 27.2
2020-Aug-06 20:10 133 3 gusting 8 26.9
2020-Aug-06 20:05 131 3 gusting 7 26.8
2020-Aug-06 20:00 126 3 gusting 8 26.8
2020-Aug-06 19:55 124 3 gusting 9 27.0
2020-Aug-06 19:50 148 4 gusting 8 26.7
2020-Aug-06 19:45 133 4 gusting 10 26.4
2020-Aug-06 19:40 144 5 gusting 10 26.6
2020-Aug-06 19:35 136 4 gusting 9 26.7
2020-Aug-06 19:30 137 3 gusting 10 26.8
2020-Aug-06 19:25 127 3 gusting 8 26.5
2020-Aug-06 19:20 122 3 gusting 10 26.4
2020-Aug-06 19:15 130 4 gusting 9 26.4
2020-Aug-06 19:10 126 4 gusting 9 26.5
2020-Aug-06 19:05 127 3 gusting 8 26.4
2020-Aug-06 19:00 129 3 gusting 6 26.0
2020-Aug-06 18:55 142 3 gusting 6 25.6
2020-Aug-06 18:50 137 2 gusting 6 25.5
2020-Aug-06 18:45 138 4 gusting 9 25.7
2020-Aug-06 18:40 157 4 gusting 7 25.4
2020-Aug-06 18:35 146 3 gusting 8 26.0
2020-Aug-06 18:30 123 2 gusting 6 26.2
2020-Aug-06 18:25 162 3 gusting 7 26.8
2020-Aug-06 18:20 153 3 gusting 6 26.8
2020-Aug-06 18:15 153 4 gusting 7 26.6
2020-Aug-06 18:10 139 4 gusting 9 26.8
2020-Aug-06 18:05 149 3 gusting 7 27.1
2020-Aug-06 18:00 131 3 gusting 10 26.5
2020-Aug-06 17:55 125 4 gusting 9 26.5
2020-Aug-06 17:50 143 4 gusting 8 26.9
2020-Aug-06 17:45 142 3 gusting 9 26.6
2020-Aug-06 17:40 126 2 gusting 6 26.8
2020-Aug-06 17:35 119 3 gusting 8 26.8
2020-Aug-06 17:30 125 3 gusting 7 26.8
2020-Aug-06 17:25 139 3 gusting 8 26.7
2020-Aug-06 17:20 111 2 gusting 5 26.0
2020-Aug-06 17:15 100 2 gusting 6 26.3
2020-Aug-06 17:10 099 2 gusting 6 26.4
2020-Aug-06 17:05 120 2 gusting 5 26.3
2020-Aug-06 17:00 105 2 gusting 7 26.4
2020-Aug-06 16:55 101 3 gusting 9 26.2
2020-Aug-06 16:50 094 3 gusting 8 26.1
2020-Aug-06 16:45 090 3 gusting 7 26.1
2020-Aug-06 16:40 104 3 gusting 7 26.4
2020-Aug-06 16:35 116 3 gusting 7 26.8
2020-Aug-06 16:30 093 2 gusting 6 26.4
2020-Aug-06 16:25 075 2 gusting 5 26.1
2020-Aug-06 16:20 074 3 gusting 6 25.9
2020-Aug-06 16:15 075 3 gusting 8 25.6
2020-Aug-06 16:10 065 2 gusting 6 25.6
2020-Aug-06 16:05 117 1 gusting 4 26.0
2020-Aug-06 16:00 102 2 gusting 6 25.6
2020-Aug-06 15:55 076 1 gusting 4 24.6
2020-Aug-06 15:50 070 2 gusting 6 24.5
2020-Aug-06 15:45 099 3 gusting 7 24.6
2020-Aug-06 15:40 078 2 gusting 8 24.8
2020-Aug-06 15:35 091 3 gusting 7 25.0
2020-Aug-06 15:30 066 1 gusting 5 25.3
2020-Aug-06 15:25 048 2 gusting 8 25.5
2020-Aug-06 15:20 061 1 gusting 4 25.6
2020-Aug-06 15:15 074 2 gusting 6 25.5
2020-Aug-06 15:10 074 1 gusting 4 25.4
2020-Aug-06 15:05 046 1 gusting 5 25.4
2020-Aug-06 15:00 068 2 gusting 11 25.5
2020-Aug-06 14:55 077 1 gusting 6 25.2
2020-Aug-06 14:50 072 2 gusting 6 25.0
2020-Aug-06 14:45 072 2 gusting 8 25.0
2020-Aug-06 14:40 053 1 gusting 4 25.0
2020-Aug-06 14:35 062 1 gusting 4 24.9
2020-Aug-06 14:30 055 1 gusting 5 24.8
2020-Aug-06 14:25 048 1 gusting 5 24.8
2020-Aug-06 14:20 060 2 gusting 6 24.9
2020-Aug-06 14:15 054 1 gusting 3 24.9
2020-Aug-06 14:10 073 1 gusting 4 25.2
2020-Aug-06 14:05 058 1 gusting 3 25.2
2020-Aug-06 14:00 042 1 gusting 4 24.6
2020-Aug-06 13:55 081 1 gusting 4 24.0
2020-Aug-06 13:50 062 1 gusting 3 23.9
2020-Aug-06 13:45 068 1 gusting 4 23.8
2020-Aug-06 13:40 064 1 gusting 3 23.8
2020-Aug-06 13:35 072 1 gusting 3 23.8
2020-Aug-06 13:30 080 2 gusting 4 23.7
2020-Aug-06 13:25 097 1 gusting 3 23.1
2020-Aug-06 13:20 042 1 gusting 4 22.8
2020-Aug-06 13:15 043 1 gusting 2 23.1
2020-Aug-06 13:10 059 2 gusting 4 22.7
2020-Aug-06 13:05 048 1 gusting 4 22.3
2020-Aug-06 13:00 047 2 gusting 4 22.1
2020-Aug-06 12:55 047 1 gusting 4 22.0
2020-Aug-06 12:50 026 3 gusting 8 22.1
2020-Aug-06 12:45 027 2 gusting 5 21.8
2020-Aug-06 12:40 020 3 gusting 5 21.3
2020-Aug-06 12:35 031 2 gusting 4 21.2
2020-Aug-06 12:30 024 3 gusting 6 21.1
2020-Aug-06 12:25 014 2 gusting 5 20.9
2020-Aug-06 12:20 016 2 gusting 4 20.7
2020-Aug-06 12:15 353 2 gusting 5 20.6
2020-Aug-06 12:10 011 3 gusting 5 20.5
2020-Aug-06 12:05 018 4 gusting 8 20.2
2020-Aug-06 12:00 016 3 gusting 5 19.9
2020-Aug-06 11:55 021 3 gusting 5 19.7
2020-Aug-06 11:50 031 1 gusting 6 19.6
2020-Aug-06 11:45 048 1 gusting 3 19.6
2020-Aug-06 11:40 023 2 gusting 3 19.6
2020-Aug-06 11:35 036 1 gusting 3 19.6
2020-Aug-06 11:30 043 2 gusting 6 19.6
2020-Aug-06 11:25 030 4 gusting 6 19.7
2020-Aug-06 11:20 016 2 gusting 4 19.7
2020-Aug-06 11:15 335 3 gusting 9 19.6
2020-Aug-06 11:10 318 5 gusting 9 19.6
2020-Aug-06 11:05 291 5 gusting 11 19.6
2020-Aug-06 11:00 296 8 gusting 21 19.7
2020-Aug-06 10:55 306 8 gusting 18 19.9
2020-Aug-06 10:50 278 7 gusting 11 20.3
2020-Aug-06 10:45 216 10 gusting 17 21.0
2020-Aug-06 10:40 269 3 gusting 9 21.1
2020-Aug-06 10:35 339 1 gusting 4 21.2
2020-Aug-06 10:30 210 0 gusting 1 21.1
2020-Aug-06 10:25 123 0 gusting 1 20.9
2020-Aug-06 10:20 046 0 gusting 2 20.8
2020-Aug-06 10:15 055 0 gusting 1 20.7
2020-Aug-06 10:10 042 0 gusting 1 20.6
2020-Aug-06 10:05 019 1 gusting 1 20.5
2020-Aug-06 10:00 002 1 gusting 1 20.4
2020-Aug-06 09:55 024 0 gusting 1 20.3
2020-Aug-06 09:50 060 0 gusting 0 20.3
2020-Aug-06 09:45 089 0 gusting 0 20.2
2020-Aug-06 09:40 035 0 gusting 1 20.2
2020-Aug-06 09:35 017 0 gusting 1 20.2
2020-Aug-06 09:30 029 1 gusting 2 20.2
2020-Aug-06 09:25 035 1 gusting 2 20.1
2020-Aug-06 09:20 20.1
2020-Aug-06 09:15 011 0 gusting 0 20.1
2020-Aug-06 09:10 005 0 gusting 1 20.0
2020-Aug-06 09:05 354 0 gusting 1 20.0
2020-Aug-06 09:00 013 0 gusting 1 20.0
2020-Aug-06 08:55 19.9
2020-Aug-06 08:50 19.9
2020-Aug-06 08:45 19.9
2020-Aug-06 08:40 19.9
2020-Aug-06 08:35 142 0 gusting 0 19.9
2020-Aug-06 08:30 20.0
2020-Aug-06 08:25 052 0 gusting 0 20.0
2020-Aug-06 08:20 20.0
2020-Aug-06 08:15 20.0
2020-Aug-06 08:10 20.0
2020-Aug-06 08:05 025 0 gusting 0 19.9
2020-Aug-06 08:00 023 0 gusting 1 19.9
2020-Aug-06 07:55 010 1 gusting 1 19.9
2020-Aug-06 07:50 006 0 gusting 1 19.9
2020-Aug-06 07:45 20.0
2020-Aug-06 07:40 20.0
2020-Aug-06 07:35 20.0
2020-Aug-06 07:30 004 0 gusting 0 20.1
2020-Aug-06 07:25 005 0 gusting 1 20.1
2020-Aug-06 07:20 020 0 gusting 1 20.2
2020-Aug-06 07:15 20.2
2020-Aug-06 07:10 20.2
2020-Aug-06 07:05 20.3
2020-Aug-06 07:00 20.3
2020-Aug-06 06:55 032 0 gusting 0 20.3
2020-Aug-06 06:50 009 0 gusting 1 20.2
2020-Aug-06 06:45 079 0 gusting 0 20.3
2020-Aug-06 06:40 20.3
2020-Aug-06 06:35 20.3
2020-Aug-06 06:30 095 0 gusting 0 20.3
2020-Aug-06 06:25 20.3
2020-Aug-06 06:20 20.3
2020-Aug-06 06:15 20.3
2020-Aug-06 06:10 20.3
2020-Aug-06 06:05 20.3
2020-Aug-06 06:00 100 0 gusting 1 20.3
2020-Aug-06 05:55 100 0 gusting 1 20.3
2020-Aug-06 05:50 338 0 gusting 0 20.3
2020-Aug-06 05:45 327 0 gusting 0 20.4
2020-Aug-06 05:40 20.4
2020-Aug-06 05:35 20.4
2020-Aug-06 05:30 046 0 gusting 0 20.4
2020-Aug-06 05:25 046 0 gusting 0 20.4
2020-Aug-06 05:20 034 0 gusting 0 20.4
2020-Aug-06 05:15 357 0 gusting 0 20.4
2020-Aug-06 05:10 006 0 gusting 0 20.4
2020-Aug-06 05:05 017 0 gusting 1 20.4
2020-Aug-06 05:00 026 0 gusting 1 20.4